Elsie, NE (69134)

1:54 AM MST on December 10, 2016 (GMT -0700)
Sisco Fertilizer | | Change Station

Elev 3415 ft 40.84 °N, 101.40 °W | Updated 7 seconds ago

Mostly Cloudy
Mostly Cloudy
17.3 °F
Feels Like 7 °F
N
8.0
Wind Variable Wind from East
Gusts 13.0 mph

Today
High -- | Low -- °F
--% Chance of Precip.
Yesterday
High -- | Low -- °F
Precip. -- in
Pressure 30.29 in
Visibility 10.0 miles
Clouds Clear
Windchill 7 °F
Dew Point 14 °F
Humidity 85%
Rainfall 0.00 in
Snow Depth Not available.
6:59 AM 4:17 PM
Waxing Gibbous, 82% visible
METAR KIML 100753Z AUTO 12005KT 10SM CLR M08/M11 A3017 RMK AO2 SLP255 T10781106
Pressure 30.29 in
Visibility 10.0 miles
Clouds Clear
Windchill 7 °F
Dew Point 14 °F
Humidity 85%
Rainfall 0.00 in
Snow Depth Not available.
6:59 AM 4:17 PM
Waxing Gibbous, 82% visible
METAR KIML 100753Z AUTO 12005KT 10SM CLR M08/M11 A3017 RMK AO2 SLP255 T10781106

10-Day Weather Forecast

Almanac

Astronomy

Dec. 10, 2016 Rise Set
Actual Time
Civil Twilight
Nautical Twilight
Astronomical Twilight
Moon
Length of Visible Light
Length of Day
Tomorrow will be .
, % of the Moon is Illuminated

Today's Extremes

State Highs State Lows

Community

WunderPhotos

Upload Photos

1,956,538 photos uploaded!

WunderBlog® & News

Nearby

Air Quality

  Air Quality AQ Index Pollutant
Not available.

Snow Depth

Station Depth Elevation

Earthquake Activity

City Distance Mag. Time & Date
Minimum magnitude displayed is 2.5.

Coastal Water Temperatures

Place Temperature

Stations

Nearby Weather Stations

Station Location Temp. Windchill Dew Point Humidity Wind Precip. Elev Updated Type
                   

Watches & Warnings

There are currently no watches in effect.